Time;durP1;ratioP1;P1;durP2;ratioP2;P2;SDS_P1;SDS_P2;PMS_P1;PMS_P2;Temp;Humidity;BMP_temperature;BMP_pressure;BME280_temperature;BME280_humidity;BME280_pressure;Samples;Min_cycle;Max_cycle;Signal;HPM_P1;HPM_P2
2023/07/19 00:00:13;;;;;;;2.67;1.97;;;16.10;99.90;;;;;;5094904;28;20416;-65
2023/07/19 00:02:38;;;;;;;3.45;1.98;;;16.10;99.90;;;;;;5099533;28;20490;-69
2023/07/19 00:05:05;;;;;;;2.43;1.90;;;16.10;99.90;;;;;;5094872;28;20031;-65
2023/07/19 00:07:30;;;;;;;4.93;2.17;;;16.10;99.90;;;;;;5094419;28;20050;-65
2023/07/19 00:09:56;;;;;;;1.70;1.43;;;16.10;99.90;;;;;;5095166;28;20446;-65
2023/07/19 00:12:22;;;;;;;1.77;1.60;;;16.10;99.90;;;;;;5093370;28;20419;-65
2023/07/19 00:14:47;;;;;;;0.83;0.83;;;16.10;99.90;;;;;;5094250;28;20028;-65
2023/07/19 00:17:13;;;;;;;1.43;1.27;;;16.20;99.90;;;;;;5094214;28;20056;-65
2023/07/19 00:19:39;;;;;;;1.77;1.10;;;16.20;99.90;;;;;;5093449;28;20047;-65
2023/07/19 00:22:07;;;;;;;1.65;1.17;;;16.20;99.90;;;;;;5075196;28;20028;-65
2023/07/19 00:24:33;;;;;;;2.13;1.60;;;16.00;99.90;;;;;;5093034;28;20028;-65
2023/07/19 00:26:58;;;;;;;2.63;1.70;;;15.90;99.90;;;;;;5094830;28;20383;-65
2023/07/19 00:29:24;;;;;;;5.53;1.77;;;15.80;99.90;;;;;;5093768;28;20032;-65
2023/07/19 00:31:50;;;;;;;2.13;1.80;;;15.70;99.90;;;;;;5092855;28;20425;-65
2023/07/19 00:34:16;;;;;;;4.10;2.03;;;15.70;99.90;;;;;;5094461;28;21037;-65
2023/07/19 00:36:41;;;;;;;3.90;2.23;;;15.70;99.90;;;;;;5093001;28;20032;-65
2023/07/19 00:39:07;;;;;;;2.47;1.63;;;15.70;99.90;;;;;;5093100;28;20334;-65
2023/07/19 00:41:33;;;;;;;2.93;2.30;;;15.80;99.90;;;;;;5088497;28;20028;-65
2023/07/19 00:43:59;;;;;;;6.77;2.63;;;15.80;99.90;;;;;;5093215;28;20107;-65
2023/07/19 00:46:25;;;;;;;3.03;2.27;;;15.80;99.90;;;;;;5092417;28;20021;-65
2023/07/19 00:48:51;;;;;;;;;;;15.90;99.90;;;;;;5092372;28;20427;-65
2023/07/19 00:51:18;;;;;;;2.95;2.13;;;16.00;99.90;;;;;;5086563;28;20298;-65
2023/07/19 00:53:47;;;;;;;5.13;2.38;;;16.00;99.90;;;;;;5091631;28;20028;-65
2023/07/19 00:56:13;;;;;;;4.22;1.98;;;16.00;99.90;;;;;;5083151;28;20086;-65
2023/07/19 00:58:39;;;;;;;2.60;2.25;;;16.00;99.90;;;;;;5093539;28;20374;-65
2023/07/19 01:01:06;;;;;;;3.95;2.03;;;16.00;99.90;;;;;;5092893;28;20058;-65
2023/07/19 01:03:32;;;;;;;4.78;2.80;;;16.00;99.90;;;;;;5097111;28;20058;-65
2023/07/19 01:06:00;;;;;;;3.73;2.30;;;16.00;99.90;;;;;;5096935;28;20395;-65
2023/07/19 01:08:26;;;;;;;3.63;2.28;;;16.00;99.90;;;;;;5096054;28;20418;-65
2023/07/19 01:10:53;;;;;;;;;;;16.00;99.90;;;;;;5091766;28;20303;-65
2023/07/19 01:13:21;;;;;;;;;;;16.10;99.90;;;;;;5089334;28;19908;-65
2023/07/19 01:15:47;;;;;;;8.45;2.42;;;16.10;99.90;;;;;;5095751;28;19935;-65
2023/07/19 01:18:13;;;;;;;5.10;2.15;;;16.10;99.90;;;;;;5097298;28;20423;-65
2023/07/19 01:20:38;;;;;;;5.30;2.40;;;16.10;99.90;;;;;;5093347;28;20035;-65
2023/07/19 01:23:04;;;;;;;6.00;2.87;;;16.10;99.90;;;;;;5096855;28;20279;-65
2023/07/19 01:25:30;;;;;;;4.00;2.70;;;16.10;99.90;;;;;;5085591;28;20074;-65
2023/07/19 01:27:56;;;;;;;5.03;2.58;;;16.10;99.90;;;;;;5102735;28;20310;-65
2023/07/19 01:30:22;;;;;;;7.90;2.30;;;16.10;99.90;;;;;;5077123;28;20039;-65
2023/07/19 01:32:48;;;;;;;2.90;2.30;;;16.10;99.90;;;;;;5097388;28;20462;-65
2023/07/19 01:35:14;;;;;;;3.73;2.43;;;16.10;99.90;;;;;;5086250;28;20051;-65
2023/07/19 01:37:40;;;;;;;4.03;3.00;;;16.10;99.90;;;;;;5076844;28;20032;-65
2023/07/19 01:40:06;;;;;;;3.70;2.80;;;16.10;99.90;;;;;;5095140;28;20030;-65
2023/07/19 01:42:32;;;;;;;4.47;2.85;;;16.10;99.90;;;;;;5096823;28;20034;-65
2023/07/19 01:44:59;;;;;;;6.70;2.77;;;16.10;99.90;;;;;;5089849;28;20028;-65
2023/07/19 01:47:25;;;;;;;4.75;2.65;;;16.10;99.90;;;;;;5076790;28;20144;-65
2023/07/19 01:49:51;;;;;;;4.63;2.80;;;16.10;99.90;;;;;;5096918;28;20569;-67
2023/07/19 01:52:17;;;;;;;6.13;2.80;;;16.10;99.90;;;;;;5085976;28;20344;-65
2023/07/19 01:54:42;;;;;;;3.97;2.53;;;16.10;99.90;;;;;;5080073;28;20021;-64
2023/07/19 01:57:08;;;;;;;7.23;2.73;;;16.10;99.90;;;;;;5091044;28;20031;-64
2023/07/19 01:59:34;;;;;;;3.70;2.67;;;16.10;99.90;;;;;;5079500;28;20395;-65
2023/07/19 02:02:00;;;;;;;8.23;2.87;;;16.00;99.90;;;;;;5094702;28;20027;-68
2023/07/19 02:04:26;;;;;;;2.92;1.95;;;16.00;99.90;;;;;;5093025;28;20029;-65
2023/07/19 02:06:53;;;;;;;4.17;2.53;;;16.00;99.90;;;;;;5097530;28;20032;-65
2023/07/19 02:09:18;;;;;;;6.40;2.22;;;16.00;99.90;;;;;;5090751;28;20029;-65
2023/07/19 02:11:44;;;;;;;7.47;2.60;;;15.90;99.90;;;;;;5096675;28;20103;-65
2023/07/19 02:14:10;;;;;;;4.43;2.73;;;16.00;99.90;;;;;;5093965;28;20036;-65
2023/07/19 02:16:35;;;;;;;3.03;2.30;;;16.00;99.90;;;;;;5094645;28;20028;-66
2023/07/19 02:19:03;;;;;;;4.70;2.47;;;16.00;99.90;;;;;;5091386;28;21702;-74
2023/07/19 02:21:29;;;;;;;2.58;2.13;;;16.00;99.90;;;;;;5094893;28;20056;-65
2023/07/19 02:23:55;;;;;;;3.10;2.47;;;16.00;99.90;;;;;;5095112;28;20055;-64
2023/07/19 02:26:21;;;;;;;7.37;2.73;;;16.00;99.90;;;;;;5092042;28;20418;-87
2023/07/19 02:28:46;;;;;;;4.95;2.88;;;16.00;99.90;;;;;;5092967;28;20028;-65
2023/07/19 02:31:12;;;;;;;4.10;2.53;;;16.00;99.90;;;;;;5094783;28;20067;-65
2023/07/19 02:33:38;;;;;;;6.80;2.73;;;16.00;99.90;;;;;;5093040;28;20055;-68
2023/07/19 02:36:04;;;;;;;6.90;3.47;;;16.00;99.90;;;;;;5093334;28;20273;-65
2023/07/19 02:38:30;;;;;;;4.60;2.53;;;16.00;99.90;;;;;;5095735;28;20035;-65
2023/07/19 02:40:59;;;;;;;2.73;2.13;;;16.00;99.90;;;;;;5094957;28;20016;-65
2023/07/19 02:43:25;;;;;;;5.88;2.70;;;16.00;99.90;;;;;;5094139;28;20024;-65
2023/07/19 02:45:55;;;;;;;4.95;3.15;;;16.00;99.90;;;;;;5092045;28;20024;-65
2023/07/19 02:48:21;;;;;;;3.50;2.50;;;16.10;99.90;;;;;;5087606;28;20032;-65
2023/07/19 02:50:48;;;;;;;6.25;2.97;;;16.10;99.90;;;;;;5093493;28;20082;-87
2023/07/19 02:53:14;;;;;;;3.92;2.63;;;16.10;99.90;;;;;;5086484;28;20370;-65
2023/07/19 02:55:43;;;;;;;5.30;3.05;;;16.10;99.90;;;;;;5085722;28;20048;-65
2023/07/19 02:58:09;;;;;;;4.90;3.22;;;16.10;99.90;;;;;;5092946;28;20037;-80
2023/07/19 03:00:42;;;;;;;4.20;2.97;;;16.10;99.90;;;;;;5091459;28;20318;-65
2023/07/19 03:03:12;;;;;;;3.65;2.83;;;16.10;99.90;;;;;;5088382;28;20020;-65
2023/07/19 03:05:42;;;;;;;3.65;2.33;;;16.10;99.90;;;;;;5094502;28;20024;-85
2023/07/19 03:08:11;;;;;;;3.72;2.47;;;16.10;99.90;;;;;;5088442;28;20028;-65
2023/07/19 03:10:38;;;;;;;4.55;3.25;;;16.00;99.90;;;;;;5095171;28;20038;-65
2023/07/19 03:13:04;;;;;;;4.97;2.85;;;16.10;99.90;;;;;;5094251;28;20111;-64
2023/07/19 03:15:33;;;;;;;8.20;3.25;;;16.00;99.90;;;;;;5092510;28;20407;-65
2023/07/19 03:18:00;;;;;;;4.97;3.60;;;16.10;99.90;;;;;;5089773;28;20047;-65
2023/07/19 03:20:27;;;;;;;3.50;2.70;;;16.00;99.90;;;;;;5095306;28;20019;-65
2023/07/19 03:22:54;;;;;;;5.93;3.60;;;16.00;99.90;;;;;;5103536;28;20029;-65
2023/07/19 03:25:20;;;;;;;5.35;2.72;;;16.00;99.90;;;;;;5093668;28;20032;-65
2023/07/19 03:27:45;;;;;;;3.63;2.60;;;16.00;99.90;;;;;;5094094;28;20137;-65
2023/07/19 03:30:12;;;;;;;5.00;2.67;;;16.00;99.90;;;;;;5094084;28;20051;-65
2023/07/19 03:32:37;;;;;;;3.70;2.45;;;16.00;99.90;;;;;;5094293;28;20110;-65
2023/07/19 03:35:04;;;;;;;4.20;2.60;;;16.00;99.90;;;;;;5094283;28;20028;-65
2023/07/19 03:37:30;;;;;;;8.38;3.60;;;16.00;99.90;;;;;;5073437;28;20028;-65
2023/07/19 03:39:55;;;;;;;3.73;2.53;;;15.90;99.90;;;;;;5094862;28;20430;-65
2023/07/19 03:42:21;;;;;;;5.20;3.10;;;15.90;99.90;;;;;;5094919;28;20055;-65
2023/07/19 03:44:47;;;;;;;12.27;2.97;;;15.90;99.90;;;;;;5094729;28;20026;-65
2023/07/19 03:47:12;;;;;;;4.10;2.30;;;15.90;99.90;;;;;;5094898;28;20079;-65
2023/07/19 03:49:38;;;;;;;2.97;2.50;;;15.90;99.90;;;;;;5095520;28;20465;-65
2023/07/19 03:52:04;;;;;;;3.90;2.60;;;15.90;99.90;;;;;;5094694;28;20030;-66
2023/07/19 03:54:30;;;;;;;7.80;2.60;;;15.90;99.90;;;;;;5094209;28;20024;-65
2023/07/19 03:56:55;;;;;;;4.83;2.43;;;15.90;99.90;;;;;;5095409;28;20047;-85
2023/07/19 03:59:21;;;;;;;5.77;2.93;;;15.90;99.90;;;;;;5094454;28;20052;-65
2023/07/19 04:01:47;;;;;;;4.13;2.13;;;15.90;99.90;;;;;;5095208;28;20434;-65
2023/07/19 04:04:12;;;;;;;5.10;2.47;;;15.90;99.90;;;;;;5094612;28;20299;-65
2023/07/19 04:06:38;;;;;;;7.03;2.47;;;16.00;99.90;;;;;;5095293;28;20028;-65
2023/07/19 04:09:04;;;;;;;5.07;2.63;;;15.90;99.90;;;;;;5094504;28;20425;-65
2023/07/19 04:11:30;;;;;;;4.07;2.57;;;15.90;99.90;;;;;;5095067;28;20031;-65
2023/07/19 04:13:55;;;;;;;4.50;2.13;;;16.00;99.90;;;;;;5095150;28;20115;-82
2023/07/19 04:16:21;;;;;;;5.13;3.00;;;16.00;99.90;;;;;;5093257;28;20040;-65
2023/07/19 04:18:47;;;;;;;5.37;2.97;;;16.00;99.90;;;;;;5090418;28;20037;-65
2023/07/19 04:21:12;;;;;;;5.17;2.60;;;16.00;99.90;;;;;;5093260;28;20043;-65
2023/07/19 04:23:38;;;;;;;5.43;3.00;;;16.00;99.90;;;;;;5093561;28;20052;-86
2023/07/19 04:26:05;;;;;;;3.33;2.57;;;16.00;99.90;;;;;;5090336;28;20024;-65
2023/07/19 04:28:31;;;;;;;4.80;2.90;;;16.00;99.90;;;;;;5092589;28;20092;-64
2023/07/19 04:30:57;;;;;;;4.85;2.95;;;16.00;99.90;;;;;;5093428;28;20067;-65
2023/07/19 04:33:22;;;;;;;5.83;2.90;;;16.00;99.90;;;;;;5094008;28;20058;-65
2023/07/19 04:35:49;;;;;;;5.17;3.07;;;16.10;99.90;;;;;;5094623;28;20055;-65
2023/07/19 04:38:15;;;;;;;4.03;3.08;;;16.20;99.90;;;;;;5077138;28;20420;-65
2023/07/19 04:40:41;;;;;;;4.27;2.93;;;16.20;99.90;;;;;;5095034;28;20028;-65
2023/07/19 04:43:07;;;;;;;5.95;3.35;;;16.20;99.90;;;;;;5098717;28;20024;-65
2023/07/19 04:45:32;;;;;;;7.37;2.87;;;16.20;99.90;;;;;;5090679;28;20047;-65
2023/07/19 04:47:58;;;;;;;4.80;3.17;;;16.20;99.90;;;;;;5097676;28;20435;-65
2023/07/19 04:50:24;;;;;;;6.47;3.83;;;16.20;99.90;;;;;;5097246;28;20032;-66
2023/07/19 04:52:51;;;;;;;4.32;2.85;;;16.10;99.90;;;;;;5096038;28;20418;-65
2023/07/19 04:55:17;;;;;;;5.57;3.15;;;16.20;99.90;;;;;;5097692;28;20161;-65
2023/07/19 04:57:42;;;;;;;6.00;2.57;;;16.10;99.90;;;;;;5095904;28;20112;-66
2023/07/19 05:00:11;;;;;;;4.13;2.87;;;16.10;99.90;;;;;;5079886;28;20024;-84
2023/07/19 05:02:38;;;;;;;3.90;2.35;;;16.20;99.90;;;;;;5093697;28;20050;-65
2023/07/19 05:05:05;;;;;;;5.70;2.80;;;16.20;99.90;;;;;;5089922;28;20016;-83
2023/07/19 05:07:36;;;;;;;4.03;2.45;;;16.20;99.90;;;;;;5093939;28;20020;-65
2023/07/19 05:10:04;;;;;;;4.32;2.38;;;16.20;99.90;;;;;;5097157;28;20043;-82
2023/07/19 05:12:31;;;;;;;4.55;2.55;;;16.30;99.90;;;;;;5095841;28;20031;-65
2023/07/19 05:14:57;;;;;;;4.43;2.50;;;16.30;99.90;;;;;;5094383;28;20107;-65
2023/07/19 05:17:23;;;;;;;3.83;2.30;;;16.30;99.90;;;;;;5096639;28;20032;-65
2023/07/19 05:19:49;;;;;;;3.60;2.07;;;16.30;99.90;;;;;;5092698;28;20031;-65
2023/07/19 05:22:14;;;;;;;3.97;2.30;;;16.40;99.90;;;;;;5095932;28;20032;-72
2023/07/19 05:24:40;;;;;;;3.73;2.30;;;16.40;99.90;;;;;;5090275;28;20039;-65
2023/07/19 05:27:06;;;;;;;4.87;1.60;;;16.40;99.90;;;;;;5090480;28;20039;-66
2023/07/19 05:29:32;;;;;;;5.50;2.33;;;16.40;99.90;;;;;;5090011;28;20415;-65
2023/07/19 05:31:58;;;;;;;6.15;2.03;;;16.50;99.90;;;;;;5092835;28;20034;-65
2023/07/19 05:34:24;;;;;;;3.47;2.50;;;16.50;99.90;;;;;;5097657;28;20111;-65
2023/07/19 05:36:50;;;;;;;2.40;1.90;;;16.60;99.90;;;;;;5091476;28;20055;-65
2023/07/19 05:39:15;;;;;;;7.00;2.47;;;16.60;99.90;;;;;;5089996;28;20399;-65
2023/07/19 05:41:41;;;;;;;4.90;1.77;;;16.70;99.90;;;;;;5087951;28;20153;-65
2023/07/19 05:44:07;;;;;;;2.67;2.17;;;16.70;99.90;;;;;;5092009;28;20020;-65
2023/07/19 05:46:36;;;;;;;5.13;1.67;;;16.80;99.90;;;;;;5083315;28;20320;-65
2023/07/19 05:49:03;;;;;;;4.07;1.83;;;16.80;99.90;;;;;;5059369;28;20049;-68
2023/07/19 05:51:29;;;;;;;9.52;3.08;;;16.80;99.90;;;;;;5063440;28;20288;-65
2023/07/19 05:53:55;;;;;;;4.22;2.58;;;16.80;99.90;;;;;;5064054;28;20024;-65
2023/07/19 05:56:21;;;;;;;4.13;1.83;;;16.90;99.90;;;;;;5062062;28;20044;-65
2023/07/19 05:58:48;;;;;;;4.38;1.80;;;16.90;99.90;;;;;;5059937;28;20032;-65
2023/07/19 06:01:17;;;;;;;2.58;1.65;;;16.90;99.90;;;;;;5067159;28;20029;-65
2023/07/19 06:03:47;;;;;;;4.28;2.80;;;17.00;99.90;;;;;;5066720;28;20017;-65
2023/07/19 06:06:14;;;;;;;4.20;1.98;;;17.00;99.90;;;;;;5069193;28;20037;-66
2023/07/19 06:08:40;;;;;;;4.15;1.95;;;17.00;99.90;;;;;;5062679;28;20051;-65
2023/07/19 06:11:06;;;;;;;3.03;2.05;;;17.10;99.90;;;;;;5071596;28;20372;-65
2023/07/19 06:13:32;;;;;;;5.50;1.67;;;17.10;99.90;;;;;;5064832;28;20037;-66
2023/07/19 06:15:58;;;;;;;2.53;1.70;;;17.20;99.90;;;;;;5073650;28;20396;-66
2023/07/19 06:18:24;;;;;;;4.27;1.83;;;17.20;99.90;;;;;;5072248;28;20032;-65
2023/07/19 06:20:50;;;;;;;4.83;2.03;;;17.30;99.90;;;;;;5069625;28;20027;-88
2023/07/19 06:23:15;;;;;;;3.57;2.13;;;17.30;99.90;;;;;;5071724;28;20285;-66
2023/07/19 06:25:42;;;;;;;3.17;1.60;;;17.40;99.90;;;;;;5071067;28;20029;-65
2023/07/19 06:28:08;;;;;;;;;;;17.40;99.90;;;;;;5065078;28;20017;-65
2023/07/19 06:30:34;;;;;;;4.37;2.37;;;17.40;99.90;;;;;;5070476;28;19910;-65
2023/07/19 06:32:59;;;;;;;1.20;1.10;;;17.40;99.90;;;;;;5069572;28;20103;-87
2023/07/19 06:35:25;;;;;;;3.57;1.83;;;17.50;99.90;;;;;;5066050;28;20024;-86
2023/07/19 06:37:51;;;;;;;4.63;1.43;;;17.50;99.90;;;;;;5062966;28;20290;-65
2023/07/19 06:40:16;;;;;;;2.30;1.60;;;17.50;99.90;;;;;;5068559;28;20031;-88
2023/07/19 06:42:43;;;;;;;2.63;1.50;;;17.50;99.90;;;;;;5065660;28;20020;-65
2023/07/19 06:45:09;;;;;;;2.38;1.20;;;17.60;99.90;;;;;;5066174;28;20140;-87
2023/07/19 06:47:34;;;;;;;4.35;1.67;;;17.60;99.90;;;;;;5079682;28;20107;-65
2023/07/19 06:50:00;;;;;;;4.00;1.40;;;17.60;99.90;;;;;;5096737;28;20533;-84
2023/07/19 06:52:26;;;;;;;5.88;1.60;;;17.70;99.90;;;;;;5095220;28;20374;-65
2023/07/19 06:54:52;;;;;;;13.57;1.80;;;17.70;99.90;;;;;;5096668;28;20059;-69
2023/07/19 06:57:20;;;;;;;4.77;1.40;;;17.70;99.90;;;;;;5095810;28;20025;-65
2023/07/19 06:59:48;;;;;;;1.98;1.40;;;17.70;99.90;;;;;;5094063;28;20020;-65
2023/07/19 07:02:13;;;;;;;3.63;1.50;;;17.70;99.90;;;;;;5093739;28;20490;-65
2023/07/19 07:04:39;;;;;;;7.77;1.50;;;17.70;99.90;;;;;;5094885;28;20114;-65
2023/07/19 07:07:05;;;;;;;6.23;1.80;;;17.80;99.90;;;;;;5094343;28;20051;-67
2023/07/19 07:09:30;;;;;;;1.85;1.50;;;17.80;99.90;;;;;;5093566;28;20097;-75
2023/07/19 07:11:57;;;;;;;1.97;1.20;;;17.90;99.90;;;;;;5095915;28;20040;-65
2023/07/19 07:14:22;;;;;;;3.03;1.90;;;17.90;99.90;;;;;;5093731;28;20032;-86
2023/07/19 07:16:48;;;;;;;3.07;1.43;;;18.00;99.90;;;;;;5096072;28;20034;-65
2023/07/19 07:19:14;;;;;;;5.50;1.83;;;18.00;99.90;;;;;;5068051;28;20027;-68
2023/07/19 07:21:40;;;;;;;4.90;1.20;;;18.10;99.90;;;;;;5095089;28;20020;-65
2023/07/19 07:24:06;;;;;;;2.00;1.13;;;18.20;99.90;;;;;;5094121;28;20032;-67
2023/07/19 07:26:33;;;;;;;4.57;1.25;;;18.40;99.90;;;;;;5095399;28;20050;-65
2023/07/19 07:28:58;;;;;;;4.00;1.30;;;18.50;99.90;;;;;;5094260;28;20028;-66
2023/07/19 07:31:24;;;;;;;4.80;1.30;;;18.60;99.90;;;;;;5095503;28;20102;-65
2023/07/19 07:33:49;;;;;;;1.83;1.10;;;18.70;99.90;;;;;;5086253;28;20032;-66
2023/07/19 07:36:15;;;;;;;3.67;1.60;;;18.80;99.90;;;;;;5090110;28;20027;-66
2023/07/19 07:38:41;;;;;;;4.03;1.07;;;18.70;99.90;;;;;;5095083;28;20047;-66
2023/07/19 07:41:11;;;;;;;3.53;1.30;;;18.80;99.90;;;;;;5077641;28;20020;-87
2023/07/19 07:43:38;;;;;;;4.72;1.50;;;18.90;99.90;;;;;;5094722;28;20043;-66
2023/07/19 07:46:03;;;;;;;4.20;1.73;;;18.90;99.90;;;;;;5091695;28;20028;-65
2023/07/19 07:48:30;;;;;;;2.97;1.50;;;19.00;99.90;;;;;;5091503;28;20123;-65
2023/07/19 07:50:55;;;;;;;3.58;1.55;;;19.10;99.90;;;;;;5083442;28;20520;-65
2023/07/19 07:53:22;;;;;;;6.85;1.83;;;19.20;99.90;;;;;;5080081;28;20282;-66
2023/07/19 07:55:50;;;;;;;4.72;1.55;;;19.20;99.90;;;;;;5082258;28;20326;-66
2023/07/19 07:58:16;;;;;;;4.05;1.67;;;19.20;99.90;;;;;;5080333;28;20043;-66
2023/07/19 08:00:43;;;;;;;3.47;1.30;;;19.20;99.90;;;;;;5087466;28;20020;-65
2023/07/19 08:03:09;;;;;;;;;;;19.20;99.90;;;;;;5092900;28;20059;-66
2023/07/19 08:05:40;;;;;;;5.30;1.33;;;19.20;99.90;;;;;;5086077;28;19958;-66
2023/07/19 08:08:07;;;;;;;1.23;0.88;;;19.30;99.90;;;;;;5081327;28;20419;-67
2023/07/19 08:10:36;;;;;;;4.07;1.17;;;19.30;99.90;;;;;;5064841;28;20046;-65
2023/07/19 08:13:01;;;;;;;1.33;1.23;;;19.50;99.90;;;;;;5087948;28;20024;-84
2023/07/19 08:15:27;;;;;;;1.77;0.90;;;19.50;99.90;;;;;;5062964;28;20029;-66
2023/07/19 08:17:53;;;;;;;5.20;1.23;;;19.60;99.90;;;;;;5090433;28;20023;-66
2023/07/19 08:20:18;;;;;;;2.33;1.60;;;19.80;99.90;;;;;;5073371;28;20107;-65
2023/07/19 08:22:44;;;;;;;4.13;1.40;;;20.00;99.90;;;;;;5094863;28;20020;-68
2023/07/19 08:25:10;;;;;;;1.67;1.30;;;20.20;99.90;;;;;;5092747;28;20348;-67
2023/07/19 08:27:36;;;;;;;2.30;1.10;;;20.50;99.90;;;;;;5096679;28;20020;-67
2023/07/19 08:30:07;;;;;;;4.20;1.13;;;20.70;99.90;;;;;;5099454;28;20047;-84
2023/07/19 08:32:35;;;;;;;2.45;1.40;;;20.90;99.90;;;;;;5094994;28;20024;-67
2023/07/19 08:35:01;;;;;;;6.72;1.88;;;21.00;99.90;;;;;;5083504;28;20028;-83
2023/07/19 08:37:27;;;;;;;4.50;1.17;;;21.10;99.90;;;;;;5094608;28;20043;-67
2023/07/19 08:39:52;;;;;;;5.60;1.33;;;21.30;99.90;;;;;;5095124;28;20077;-68
2023/07/19 08:42:18;;;;;;;2.37;1.10;;;21.40;99.90;;;;;;5083259;28;20427;-67
2023/07/19 08:44:44;;;;;;;2.40;1.23;;;21.30;99.90;;;;;;5094458;28;20426;-66
2023/07/19 08:47:11;;;;;;;3.53;1.53;;;21.40;99.90;;;;;;5094650;28;20062;-66
2023/07/19 08:49:38;;;;;;;3.95;1.48;;;21.70;99.90;;;;;;5078391;28;20407;-66
2023/07/19 08:52:07;;;;;;;6.43;1.90;;;22.00;99.90;;;;;;5088845;28;20411;-67
2023/07/19 08:54:32;;;;;;;4.70;1.52;;;22.20;99.90;;;;;;5072778;28;20158;-67
2023/07/19 08:56:58;;;;;;;3.88;2.03;;;22.30;99.90;;;;;;5087447;28;20099;-67
2023/07/19 08:59:25;;;;;;;4.67;1.77;;;22.30;99.90;;;;;;5093903;28;20035;-67
2023/07/19 09:01:51;;;;;;;3.80;1.35;;;22.20;99.90;;;;;;5094588;28;20865;-67
2023/07/19 09:04:16;;;;;;;5.25;1.40;;;21.90;99.90;;;;;;5065485;28;20058;-67
2023/07/19 09:06:42;;;;;;;4.03;1.38;;;21.80;99.90;;;;;;5094293;28;20032;-66
2023/07/19 09:09:09;;;;;;;2.83;1.40;;;21.50;99.90;;;;;;5094183;28;20322;-67
2023/07/19 09:11:35;;;;;;;1.85;1.27;;;21.20;99.90;;;;;;5090068;28;20052;-66
2023/07/19 09:14:01;;;;;;;1.87;1.50;;;21.00;99.90;;;;;;5087547;28;20052;-86
2023/07/19 09:16:32;;;;;;;2.43;1.83;;;20.70;99.90;;;;;;5093520;28;20436;-66
2023/07/19 09:18:59;;;;;;;1.52;1.20;;;20.60;99.90;;;;;;5085423;28;20431;-66
2023/07/19 09:21:44;;;;;;;3.78;1.33;;;20.40;99.90;;;;;;5091736;28;20104;-67
2023/07/19 09:24:11;;;;;;;2.92;1.30;;;20.10;99.90;;;;;;5080054;28;20353;-67
2023/07/19 09:26:52;;;;;;;7.55;1.77;;;19.80;99.90;;;;;;5097574;28;20121;-66
2023/07/19 09:29:19;;;;;;;1.98;1.45;;;19.60;99.90;;;;;;5098203;28;20035;-67
2023/07/19 09:31:54;;;;;;;;;;;19.40;99.90;;;;;;5102349;28;20035;-81
2023/07/19 09:34:27;;;;;;;3.35;1.70;;;19.30;99.90;;;;;;5098005;28;20221;-79
2023/07/19 09:36:53;;;;;;;2.03;1.45;;;19.20;99.90;;;;;;5108004;28;20023;-67
2023/07/19 09:39:20;;;;;;;2.67;1.23;;;19.20;99.90;;;;;;5079850;28;20483;-66
2023/07/19 09:41:46;;;;;;;2.97;1.30;;;19.40;99.90;;;;;;5097975;28;20028;-67
2023/07/19 09:44:15;;;;;;;4.82;2.28;;;19.60;99.90;;;;;;5097120;28;20024;-66
2023/07/19 09:46:45;;;;;;;2.95;1.70;;;19.60;99.90;;;;;;5097703;28;20028;-65
2023/07/19 09:49:13;;;;;;;5.18;1.83;;;19.70;99.90;;;;;;5096867;28;20040;-66
2023/07/19 09:51:43;;;;;;;2.83;1.23;;;19.80;99.90;;;;;;5097514;28;20036;-65
2023/07/19 09:54:11;;;;;;;6.13;1.88;;;19.80;99.90;;;;;;5097146;28;20024;-66
2023/07/19 09:56:38;;;;;;;5.30;1.95;;;19.60;99.90;;;;;;5079430;28;20036;-65
2023/07/19 09:59:13;;;;;;;5.07;2.28;;;19.60;99.90;;;;;;5096768;28;20111;-65
2023/07/19 10:01:40;;;;;;;5.10;1.50;;;19.70;99.90;;;;;;5097399;28;20020;-66
2023/07/19 10:04:26;;;;;;;4.75;2.22;;;19.70;99.90;;;;;;5096700;28;20024;-66
2023/07/19 10:07:20;;;;;;;3.13;1.30;;;19.70;99.90;;;;;;5097281;28;20361;-65
2023/07/19 10:09:47;;;;;;;3.17;1.55;;;19.40;99.90;;;;;;5089481;28;20035;-65
2023/07/19 10:12:18;;;;;;;5.63;2.25;;;19.40;99.90;;;;;;5081469;28;20078;-67
2023/07/19 10:15:00;;;;;;;6.00;1.50;;;19.40;99.90;;;;;;5095468;28;20028;-66
2023/07/19 10:17:29;;;;;;;2.70;1.83;;;19.40;99.90;;;;;;5094624;28;20115;-66
2023/07/19 10:20:04;;;;;;;5.78;1.73;;;19.60;99.90;;;;;;5090159;28;20012;-65
2023/07/19 10:22:50;;;;;;;2.10;1.58;;;19.60;99.90;;;;;;5086178;28;20039;-65
2023/07/19 10:25:24;;;;;;;5.10;1.50;;;19.70;99.90;;;;;;5082106;28;20320;-65
2023/07/19 10:28:03;;;;;;;6.00;2.42;;;19.80;99.90;;;;;;5095669;28;20024;-67
2023/07/19 10:30:44;;;;;;;3.67;1.73;;;19.80;99.90;;;;;;5081985;28;20310;-66
2023/07/19 10:33:21;;;;;;;2.30;1.60;;;19.80;99.90;;;;;;5097122;28;20024;-66
2023/07/19 10:35:49;;;;;;;3.45;1.73;;;19.80;99.90;;;;;;5090356;28;20345;-66
2023/07/19 10:38:21;;;;;;;2.30;1.60;;;19.70;99.90;;;;;;5085701;28;20032;-66
2023/07/19 10:40:52;;;;;;;1.38;1.15;;;19.60;99.90;;;;;;5096039;28;20109;-65
2023/07/19 10:43:18;;;;;;;3.97;1.33;;;19.50;99.90;;;;;;5095993;28;20039;-65
2023/07/19 10:45:44;;;;;;;4.50;1.50;;;19.50;99.90;;;;;;5089001;28;20016;-65
2023/07/19 10:48:10;;;;;;;2.27;1.40;;;19.50;99.90;;;;;;5095793;28;20036;-64
2023/07/19 10:50:36;;;;;;;2.20;1.50;;;19.50;99.90;;;;;;5090967;28;20441;-66
2023/07/19 10:53:02;;;;;;;4.50;1.85;;;19.60;99.90;;;;;;5085272;28;20036;-81
2023/07/19 10:55:28;;;;;;;2.00;1.13;;;19.60;99.90;;;;;;5095712;28;20022;-65
2023/07/19 10:57:54;;;;;;;6.85;1.98;;;19.60;99.90;;;;;;5096270;28;20028;-65
2023/07/19 11:00:20;;;;;;;2.33;1.37;;;19.70;99.90;;;;;;5096357;28;20445;-65
2023/07/19 11:02:45;;;;;;;4.00;1.40;;;19.70;99.90;;;;;;5095754;28;20012;-67
2023/07/19 11:05:11;;;;;;;2.00;1.10;;;19.80;99.90;;;;;;5096167;28;20027;-65
2023/07/19 11:07:37;;;;;;;3.70;1.37;;;20.00;99.90;;;;;;5077822;28;20101;-65
2023/07/19 11:10:03;;;;;;;1.70;1.07;;;20.20;99.90;;;;;;5096210;28;20016;-65
2023/07/19 11:12:33;;;;;;;1.77;1.00;;;20.20;99.90;;;;;;5095556;28;20024;-69
2023/07/19 11:15:01;;;;;;;3.20;1.40;;;20.30;99.90;;;;;;5095988;28;20423;-65
2023/07/19 11:17:28;;;;;;;2.28;1.17;;;20.30;99.90;;;;;;5092301;28;20369;-65
2023/07/19 11:19:55;;;;;;;2.05;1.13;;;20.20;99.90;;;;;;5089489;28;20020;-65
2023/07/19 11:22:27;;;;;;;2.65;1.25;;;20.20;99.90;;;;;;5079263;28;20026;-66
2023/07/19 11:24:54;;;;;;;2.97;1.58;;;20.20;99.90;;;;;;5100765;28;20738;-64
2023/07/19 11:27:32;;;;;;;;;;;20.10;99.90;;;;;;5096270;28;20032;-65
2023/07/19 11:29:57;;;;;;;2.30;1.30;;;20.10;99.90;;;;;;5095341;28;19915;-64
2023/07/19 11:32:23;;;;;;;3.90;1.50;;;20.20;99.90;;;;;;5096035;28;20028;-66
2023/07/19 11:34:54;;;;;;;4.70;1.67;;;20.40;99.90;;;;;;5095894;28;20314;-66
2023/07/19 11:37:23;;;;;;;4.18;1.58;;;20.50;99.90;;;;;;5096077;28;20027;-66
2023/07/19 11:39:50;;;;;;;1.15;0.73;;;20.50;99.90;;;;;;5102871;28;20103;-66
2023/07/19 11:42:44;;;;;;;2.00;1.08;;;20.40;99.90;;;;;;5087475;28;20607;-67
2023/07/19 11:45:12;;;;;;;1.25;0.80;;;20.40;99.90;;;;;;5092864;28;20414;-66
2023/07/19 11:47:39;;;;;;;3.97;1.02;;;20.50;99.90;;;;;;5080191;28;20036;-66
2023/07/19 11:50:06;;;;;;;1.13;0.90;;;20.50;99.90;;;;;;5095084;28;20406;-67
2023/07/19 11:52:46;;;;;;;4.47;0.88;;;20.50;99.90;;;;;;5091711;28;20485;-66
2023/07/19 11:55:12;;;;;;;3.85;1.55;;;20.60;99.90;;;;;;5087002;28;20043;-67
2023/07/19 11:57:40;;;;;;;1.60;0.70;;;20.70;99.90;;;;;;5094938;28;20024;-65
2023/07/19 12:00:07;;;;;;;1.35;0.90;;;21.20;99.90;;;;;;5094993;28;20411;-66
2023/07/19 12:02:34;;;;;;;2.50;1.40;;;21.60;99.90;;;;;;5093709;28;20387;-66
2023/07/19 12:04:59;;;;;;;5.85;1.30;;;21.80;99.90;;;;;;5093836;28;20429;-67
2023/07/19 12:07:25;;;;;;;1.53;0.93;;;21.60;99.90;;;;;;5091461;28;20031;-66
2023/07/19 12:09:51;;;;;;;1.30;1.20;;;21.30;99.90;;;;;;5094635;28;20035;-66
2023/07/19 12:12:17;;;;;;;2.03;1.27;;;21.00;99.90;;;;;;5095291;28;20418;-66
2023/07/19 12:14:42;;;;;;;2.10;1.10;;;20.80;99.90;;;;;;5094456;28;20035;-66
2023/07/19 12:17:09;;;;;;;2.70;1.70;;;20.60;99.90;;;;;;5076625;28;20053;-65
2023/07/19 12:19:34;;;;;;;3.50;0.80;;;20.70;99.90;;;;;;5086960;28;20426;-66
2023/07/19 12:22:00;;;;;;;3.90;0.77;;;21.00;99.90;;;;;;5094367;28;20027;-86
2023/07/19 12:24:26;;;;;;;5.33;1.30;;;21.20;99.90;;;;;;5084374;28;20024;-66
2023/07/19 12:26:51;;;;;;;0.80;0.80;;;21.40;99.90;;;;;;5082785;28;20040;-67
2023/07/19 12:29:17;;;;;;;3.63;0.97;;;21.40;99.90;;;;;;5086788;28;20394;-66
2023/07/19 12:31:43;;;;;;;1.83;0.97;;;21.40;99.90;;;;;;5091213;28;20102;-69
2023/07/19 12:34:09;;;;;;;1.40;0.88;;;21.60;99.90;;;;;;5089612;28;20318;-67
2023/07/19 12:36:35;;;;;;;3.00;1.00;;;21.80;99.90;;;;;;5087286;28;20131;-67
2023/07/19 12:39:00;;;;;;;3.03;1.40;;;21.70;99.90;;;;;;5073741;28;20020;-73
2023/07/19 12:41:26;;;;;;;2.03;1.40;;;21.50;99.90;;;;;;5088549;28;20047;-87
2023/07/19 12:43:52;;;;;;;0.83;0.67;;;21.30;99.90;;;;;;5085597;28;20043;-67
2023/07/19 12:46:19;;;;;;;1.63;1.10;;;21.30;99.90;;;;;;5081707;28;20662;-66